createdAt,value
2023-04-18T00:02:19.922Z,100309.66
2023-04-18T00:05:23.132Z,100318.59
2023-04-18T00:08:26.003Z,100317.81
2023-04-18T00:11:30.095Z,100314.19
2023-04-18T00:14:34.791Z,100311.81
2023-04-18T00:17:40.138Z,100316.81
2023-04-18T00:20:43.556Z,100317.44
2023-04-18T00:23:46.254Z,100318.72
2023-04-18T00:26:49.479Z,100320.25
2023-04-18T00:29:52.162Z,100318.50
2023-04-18T00:32:55.391Z,100321.81
2023-04-18T00:35:58.181Z,100326.75
2023-04-18T00:39:01.666Z,100333.16
2023-04-18T00:42:04.342Z,100330.44
2023-04-18T00:45:07.489Z,100335.16
2023-04-18T00:48:10.678Z,100330.56
2023-04-18T00:51:13.950Z,100331.50
2023-04-18T00:54:18.694Z,100324.13
2023-04-18T00:57:22.607Z,100330.66
2023-04-18T01:00:26.634Z,100318.13
2023-04-18T01:03:29.790Z,100323.47
2023-04-18T01:06:32.879Z,100314.50
2023-04-18T01:09:37.471Z,100320.81
2023-04-18T01:12:40.828Z,100315.53
2023-04-18T01:15:44.900Z,100318.00
2023-04-18T01:18:47.381Z,100311.59
2023-04-18T01:21:53.608Z,100316.47
2023-04-18T01:24:56.102Z,100320.22
2023-04-18T01:27:59.009Z,100319.47
2023-04-18T01:31:03.407Z,100312.28
2023-04-18T01:34:06.594Z,100322.31
2023-04-18T01:37:09.166Z,100314.66
2023-04-18T01:40:12.307Z,100318.88
2023-04-18T01:43:15.152Z,100308.69
2023-04-18T01:46:17.940Z,100317.63
2023-04-18T01:49:22.324Z,100316.22
2023-04-18T01:52:26.461Z,100315.75
2023-04-18T01:55:28.890Z,100313.75
2023-04-18T01:58:32.177Z,100317.50
2023-04-18T02:01:34.708Z,100318.63
2023-04-18T02:04:37.504Z,100321.59
2023-04-18T02:07:41.179Z,100322.38
2023-04-18T02:10:44.069Z,100329.22
2023-04-18T02:13:46.843Z,100319.69
2023-04-18T02:16:49.561Z,100321.72
2023-04-18T02:19:53.177Z,100325.31
2023-04-18T02:22:56.117Z,100326.09
2023-04-18T02:25:58.579Z,100330.78
2023-04-18T02:29:01.365Z,100326.41
2023-04-18T02:32:05.446Z,100319.34
2023-04-18T02:35:08.517Z,100324.38
2023-04-18T02:38:11.362Z,100321.72
2023-04-18T02:41:18.294Z,100325.13
2023-04-18T02:44:20.833Z,100318.38
2023-04-18T02:47:23.545Z,100319.34
2023-04-18T02:50:27.032Z,100322.94
2023-04-18T02:53:31.530Z,100326.41
2023-04-18T02:56:39.799Z,100327.97
2023-04-18T02:59:54.489Z,100332.03
2023-04-18T03:03:17.588Z,100320.75
2023-04-18T03:06:33.990Z,100333.78
2023-04-18T03:09:38.110Z,100323.78
2023-04-18T03:12:52.778Z,100329.91
2023-04-18T03:15:56.452Z,100341.47
2023-04-18T03:19:01.895Z,100331.28
2023-04-18T03:22:06.157Z,100335.41
2023-04-18T03:25:11.787Z,100336.50
2023-04-18T03:28:21.080Z,100337.56
2023-04-18T03:31:24.312Z,100343.50
2023-04-18T03:34:27.111Z,100331.78
2023-04-18T03:37:30.935Z,100334.13
2023-04-18T03:40:35.393Z,100336.00
2023-04-18T03:43:44.826Z,100335.84
2023-04-18T03:46:54.152Z,100342.25
2023-04-18T03:49:57.330Z,100342.06
2023-04-18T03:53:01.705Z,100333.16
2023-04-18T03:56:08.597Z,100340.69
2023-04-18T03:59:26.839Z,100341.28
2023-04-18T04:02:30.972Z,100340.53
2023-04-18T04:05:33.674Z,100335.41
2023-04-18T04:08:36.608Z,100335.56
2023-04-18T04:11:39.800Z,100344.53
2023-04-18T04:14:45.481Z,100347.66
2023-04-18T04:17:48.447Z,100347.06
2023-04-18T04:20:52.293Z,100359.75
2023-04-18T04:24:15.607Z,100362.59
2023-04-18T04:27:22.934Z,100353.03
2023-04-18T04:30:26.282Z,100368.41
2023-04-18T04:33:29.045Z,100366.19
2023-04-18T04:36:35.752Z,100372.31
2023-04-18T04:39:41.518Z,100381.56
2023-04-18T04:43:03.390Z,100374.50
2023-04-18T04:46:13.940Z,100374.19
2023-04-18T04:49:18.835Z,100385.81
2023-04-18T04:52:21.762Z,100381.13
2023-04-18T04:55:24.782Z,100386.31
2023-04-18T04:58:28.186Z,100383.97
2023-04-18T05:01:33.505Z,100393.84
2023-04-18T05:04:36.435Z,100387.56
2023-04-18T05:07:39.286Z,100387.41
2023-04-18T05:10:43.525Z,100389.47
2023-04-18T05:13:46.057Z,100391.38
2023-04-18T05:16:48.873Z,100395.47
2023-04-18T05:19:51.960Z,100399.06
2023-04-18T05:22:54.689Z,100390.63
2023-04-18T05:25:57.330Z,100392.84
2023-04-18T05:29:00.144Z,100395.34
2023-04-18T05:32:03.512Z,100398.16
2023-04-18T05:35:07.130Z,100393.31
2023-04-18T05:38:09.695Z,100398.47
2023-04-18T05:41:12.218Z,100406.34
2023-04-18T05:44:16.206Z,100402.72
2023-04-18T05:47:19.085Z,100397.97
2023-04-18T05:50:23.327Z,100414.97
2023-04-18T05:53:26.194Z,100406.66
2023-04-18T05:56:29.354Z,100409.00
2023-04-18T05:59:31.928Z,100415.72
2023-04-18T06:02:34.584Z,100419.50
2023-04-18T06:05:37.432Z,100417.63
2023-04-18T06:08:40.377Z,100418.44
2023-04-18T06:11:43.192Z,100426.50
2023-04-18T06:14:46.184Z,100422.16
2023-04-18T06:17:48.841Z,100423.28
2023-04-18T06:20:51.849Z,100430.13
2023-04-18T06:23:54.761Z,100428.50
2023-04-18T06:26:57.626Z,100432.19
2023-04-18T06:30:00.315Z,100439.28
2023-04-18T06:33:03.226Z,100426.41
2023-04-18T06:36:07.257Z,100432.25
2023-04-18T06:39:09.942Z,100428.56
2023-04-18T06:42:12.613Z,100436.69
2023-04-18T06:45:20.197Z,100442.16
2023-04-18T06:48:22.871Z,100437.84
2023-04-18T06:51:25.283Z,100448.84
2023-04-18T06:54:27.973Z,100447.75
2023-04-18T06:57:30.430Z,100458.22
2023-04-18T07:00:33.115Z,100457.75
2023-04-18T07:03:35.700Z,100463.06
2023-04-18T07:06:38.457Z,100468.97
2023-04-18T07:09:41.029Z,100467.19
2023-04-18T07:12:43.710Z,100476.03
2023-04-18T07:15:46.126Z,100465.28
2023-04-18T07:18:49.172Z,100467.97
2023-04-18T07:21:51.628Z,100467.97
2023-04-18T07:24:54.408Z,100471.84
2023-04-18T07:27:56.814Z,100478.75
2023-04-18T07:31:01.522Z,100483.00
2023-04-18T07:34:04.781Z,100485.88
2023-04-18T07:37:07.373Z,100482.16
2023-04-18T07:40:10.571Z,100481.66
2023-04-18T07:43:13.201Z,100492.03
2023-04-18T07:46:15.766Z,100489.53
2023-04-18T07:49:18.240Z,100496.25
2023-04-18T07:52:21.065Z,100498.72
2023-04-18T07:55:24.118Z,100493.59
2023-04-18T07:58:26.693Z,100498.50
2023-04-18T08:01:29.407Z,100504.66
2023-04-18T08:04:32.336Z,100505.81
2023-04-18T08:07:34.986Z,100508.84
2023-04-18T08:10:38.135Z,100500.88
2023-04-18T08:13:40.630Z,100508.03
2023-04-18T08:16:43.308Z,100506.28
2023-04-18T08:19:46.155Z,100511.72
2023-04-18T08:23:05.105Z,100511.81
2023-04-18T08:26:09.194Z,100518.53
2023-04-18T08:29:13.165Z,100522.59
2023-04-18T08:32:15.840Z,100518.94
2023-04-18T08:35:18.540Z,100524.81
2023-04-18T08:38:21.033Z,100520.78
2023-04-18T08:41:24.794Z,100522.34
2023-04-18T08:44:29.223Z,100523.38
2023-04-18T08:47:31.888Z,100527.28
2023-04-18T08:50:34.595Z,100524.16
2023-04-18T08:53:39.264Z,100534.50
2023-04-18T08:56:42.321Z,100529.28
2023-04-18T08:59:47.646Z,100532.09
2023-04-18T09:02:56.788Z,100535.22
2023-04-18T09:06:18.802Z,100533.44
2023-04-18T09:09:27.477Z,100525.72
2023-04-18T09:12:30.199Z,100527.88
2023-04-18T09:15:32.909Z,100528.56
2023-04-18T09:18:35.664Z,100527.41
2023-04-18T09:21:44.613Z,100531.78
2023-04-18T09:24:54.292Z,100529.97
2023-04-18T09:28:02.336Z,100531.81
2023-04-18T09:31:13.359Z,100528.19
2023-04-18T09:34:25.226Z,100527.41
2023-04-18T09:37:29.245Z,100535.75
2023-04-18T09:40:32.883Z,100536.63
2023-04-18T09:43:35.416Z,100529.63
2023-04-18T09:46:38.183Z,100530.78
2023-04-18T09:49:41.103Z,100536.88
2023-04-18T09:52:45.344Z,100531.78
2023-04-18T09:55:54.865Z,100522.31
2023-04-18T09:59:09.399Z,100526.63
2023-04-18T10:02:18.662Z,100519.34
2023-04-18T10:05:24.969Z,100523.41
2023-04-18T10:08:28.109Z,100521.81
2023-04-18T10:11:32.345Z,100520.06
2023-04-18T10:14:37.360Z,100514.78
2023-04-18T10:18:04.444Z,100513.16
2023-04-18T10:21:09.229Z,100517.28
2023-04-18T10:24:50.145Z,100513.59
2023-04-18T10:27:57.535Z,100517.38
2023-04-18T10:31:05.113Z,100519.09
2023-04-18T10:34:08.017Z,100516.44
2023-04-18T10:37:12.994Z,100522.00
2023-04-18T10:40:15.759Z,100511.09
2023-04-18T10:43:18.349Z,100514.19
2023-04-18T10:46:31.656Z,100511.09
2023-04-18T11:06:31.476Z,100484.22
2023-04-18T11:09:34.569Z,100483.50
2023-04-18T11:12:39.311Z,100480.78
2023-04-18T11:15:41.770Z,100473.72
2023-04-18T11:18:44.623Z,100474.84
2023-04-18T11:21:47.557Z,100471.63
2023-04-18T11:24:50.211Z,100464.91
2023-04-18T11:27:55.262Z,100462.28
2023-04-18T11:31:00.009Z,100454.91
2023-04-18T11:34:02.621Z,100463.06
2023-04-18T11:37:08.526Z,100460.13
2023-04-18T11:40:12.107Z,100462.19
2023-04-18T11:43:23.545Z,100472.97
2023-04-18T11:46:38.021Z,100467.53
2023-04-18T11:49:41.023Z,100474.44
2023-04-18T11:52:43.605Z,100464.81
2023-04-18T11:55:55.802Z,100465.06
2023-04-18T11:58:58.655Z,100453.84
2023-04-18T12:02:15.443Z,100458.47
2023-04-18T12:05:38.978Z,100452.91
2023-04-18T12:08:43.290Z,100458.19
2023-04-18T12:12:06.382Z,100456.47
2023-04-18T12:15:14.259Z,100452.38
2023-04-18T12:18:19.339Z,100461.84
2023-04-18T12:21:22.243Z,100459.13
2023-04-18T12:24:25.242Z,100454.09
2023-04-18T12:27:47.150Z,100457.06
2023-04-18T12:30:49.850Z,100458.63
2023-04-18T12:33:52.929Z,100459.28
2023-04-18T12:36:55.444Z,100453.78
2023-04-18T12:39:58.177Z,100443.97
2023-04-18T12:43:02.966Z,100444.63
2023-04-18T12:46:06.308Z,100441.97
2023-04-18T12:49:08.834Z,100442.47
2023-04-18T12:52:11.533Z,100443.81
2023-04-18T12:55:14.415Z,100436.50
2023-04-18T12:58:18.823Z,100421.25
2023-04-18T13:01:21.469Z,100426.84
2023-04-18T13:04:24.876Z,100426.31
2023-04-18T13:07:27.475Z,100422.94
2023-04-18T13:10:30.331Z,100416.81
2023-04-18T13:13:34.450Z,100423.72
2023-04-18T13:16:38.886Z,100420.19
2023-04-18T13:19:41.665Z,100413.31
2023-04-18T13:22:45.612Z,100410.50
2023-04-18T13:25:48.023Z,100410.25
2023-04-18T13:28:50.638Z,100403.97
2023-04-18T13:31:53.340Z,100398.13
2023-04-18T13:34:56.564Z,100400.09
2023-04-18T13:38:01.766Z,100394.38
2023-04-18T13:41:12.376Z,100386.66
2023-04-18T13:44:15.985Z,100389.66
2023-04-18T13:47:18.869Z,100390.63
2023-04-18T13:50:21.578Z,100384.72
2023-04-18T13:53:24.236Z,100369.16
2023-04-18T13:56:28.136Z,100374.84
2023-04-18T13:59:31.943Z,100372.75
2023-04-18T14:02:34.516Z,100376.56
2023-04-18T14:05:37.506Z,100371.50
2023-04-18T14:08:40.959Z,100357.16
2023-04-18T14:11:58.994Z,100360.69
2023-04-18T14:18:32.489Z,100362.16
2023-04-18T14:21:35.102Z,100363.88
2023-04-18T14:24:37.789Z,100365.09
2023-04-18T14:27:40.389Z,100356.09
2023-04-18T14:30:44.375Z,100362.31
2023-04-18T14:33:46.844Z,100357.94
2023-04-18T14:36:49.532Z,100366.22
2023-04-18T14:39:52.160Z,100372.66
2023-04-18T14:42:54.907Z,100380.28
2023-04-18T14:45:59.005Z,100387.78
2023-04-18T14:49:02.446Z,100387.81
2023-04-18T14:52:05.467Z,100397.59
2023-04-18T14:55:09.213Z,100391.88
2023-04-18T14:58:11.630Z,100396.31
2023-04-18T15:01:15.247Z,100395.47
2023-04-18T15:04:18.112Z,100403.31
2023-04-18T15:07:21.025Z,100402.78
2023-04-18T15:10:23.522Z,100404.91
2023-04-18T15:13:26.331Z,100405.72
2023-04-18T15:16:28.763Z,100408.13
2023-04-18T15:19:32.065Z,100413.59
2023-04-18T15:22:35.810Z,100414.47
2023-04-18T15:25:38.586Z,100407.78
2023-04-18T15:28:41.249Z,100416.84
2023-04-18T15:31:44.201Z,100413.19
2023-04-18T15:34:46.607Z,100418.72
2023-04-18T15:37:49.369Z,100422.97
2023-04-18T15:40:51.969Z,100424.44
2023-04-18T15:43:54.569Z,100433.22
2023-04-18T15:46:57.656Z,100428.34
2023-04-18T15:50:00.746Z,100439.50
2023-04-18T15:53:03.323Z,100427.66
2023-04-18T15:56:06.596Z,100429.22
2023-04-18T15:59:11.040Z,100437.50
2023-04-18T16:02:14.386Z,100434.38
2023-04-18T16:05:17.465Z,100441.31
2023-04-18T16:08:20.150Z,100443.63
2023-04-18T16:11:26.073Z,100436.81
2023-04-18T16:14:28.737Z,100438.03
2023-04-18T16:17:31.591Z,100439.63
2023-04-18T16:20:34.484Z,100445.47
2023-04-18T16:23:37.048Z,100447.69
2023-04-18T16:26:39.588Z,100448.63
2023-04-18T16:29:44.126Z,100454.00
2023-04-18T16:32:47.283Z,100459.91
2023-04-18T16:35:49.902Z,100468.31
2023-04-18T16:38:52.586Z,100462.59
2023-04-18T16:41:55.298Z,100463.72
2023-04-18T16:44:58.208Z,100468.88
2023-04-18T16:48:00.950Z,100466.97
2023-04-18T16:51:03.685Z,100460.94
2023-04-18T16:54:06.475Z,100460.63
2023-04-18T16:57:09.054Z,100461.03
2023-04-18T17:00:13.592Z,100464.19
2023-04-18T17:03:16.360Z,100468.31
2023-04-18T17:06:19.546Z,100474.13
2023-04-18T17:09:22.710Z,100485.84
2023-04-18T17:12:25.672Z,100474.78
2023-04-18T17:15:28.804Z,100467.06
2023-04-18T17:18:32.178Z,100456.34
2023-04-18T17:21:36.139Z,100449.09
2023-04-18T17:24:38.903Z,100458.38
2023-04-18T17:27:41.560Z,100458.75
2023-04-18T17:30:44.443Z,100456.31
2023-04-18T17:33:51.146Z,100453.16
2023-04-18T17:36:54.014Z,100458.06
2023-04-18T17:39:58.500Z,100460.63
2023-04-18T17:43:01.286Z,100445.44
2023-04-18T17:46:04.414Z,100461.41
2023-04-18T17:49:07.263Z,100461.28
2023-04-18T17:52:10.674Z,100460.38
2023-04-18T17:55:13.535Z,100460.25
2023-04-18T17:58:17.029Z,100460.00
2023-04-18T18:01:21.123Z,100464.31
2023-04-18T18:04:26.369Z,100468.34
2023-04-18T18:07:31.151Z,100473.91
2023-04-18T18:10:34.563Z,100468.28
2023-04-18T18:13:38.959Z,100466.06
2023-04-18T18:16:41.925Z,100472.53
2023-04-18T18:19:44.771Z,100472.84
2023-04-18T18:22:48.073Z,100470.72
2023-04-18T18:26:11.972Z,100457.06
2023-04-18T18:29:15.339Z,100470.44
2023-04-18T18:32:18.172Z,100459.75
2023-04-18T18:35:21.507Z,100468.03
2023-04-18T18:38:24.126Z,100470.72
2023-04-18T18:41:26.993Z,100462.88
2023-04-18T18:44:30.501Z,100463.06
2023-04-18T18:47:34.443Z,100473.00
2023-04-18T18:50:37.775Z,100473.53
2023-04-18T18:53:41.047Z,100469.94
2023-04-18T18:56:45.287Z,100466.28
2023-04-18T18:59:51.028Z,100468.81
2023-04-18T19:02:55.134Z,100469.53
2023-04-18T19:05:58.158Z,100466.53
2023-04-18T19:09:01.186Z,100463.38
2023-04-18T19:12:05.218Z,100458.75
2023-04-18T19:15:08.704Z,100464.56
2023-04-18T19:18:12.641Z,100464.34
2023-04-18T19:21:15.940Z,100460.00
2023-04-18T19:24:19.298Z,100459.31
2023-04-18T19:27:22.212Z,100454.72
2023-04-18T19:30:25.385Z,100453.69
2023-04-18T19:33:29.309Z,100449.75
2023-04-18T19:36:32.733Z,100453.72
2023-04-18T19:39:36.389Z,100456.28
2023-04-18T19:42:39.115Z,100455.34
2023-04-18T19:45:42.487Z,100453.22
2023-04-18T19:48:45.526Z,100459.03
2023-04-18T19:51:49.084Z,100451.53
2023-04-18T19:54:53.067Z,100457.88
2023-04-18T19:57:56.777Z,100468.59
2023-04-18T20:00:59.889Z,100449.81
2023-04-18T20:04:02.791Z,100456.56
2023-04-18T20:07:05.994Z,100452.19
2023-04-18T20:10:09.546Z,100446.91
2023-04-18T20:13:12.737Z,100449.56
2023-04-18T20:16:16.900Z,100454.81
2023-04-18T20:19:19.869Z,100460.50
2023-04-18T20:22:27.240Z,100451.28
2023-04-18T20:25:30.069Z,100455.84
2023-04-18T20:28:32.716Z,100452.59
2023-04-18T20:31:37.805Z,100452.28
2023-04-18T20:34:40.661Z,100457.94
2023-04-18T20:37:44.950Z,100460.44
2023-04-18T20:40:48.947Z,100446.63
2023-04-18T20:43:53.828Z,100451.34
2023-04-18T20:46:57.275Z,100451.84
2023-04-18T20:50:00.652Z,100443.84
2023-04-18T20:53:04.058Z,100446.50
2023-04-18T20:56:06.927Z,100443.06
2023-04-18T20:59:09.451Z,100444.16
2023-04-18T21:02:12.600Z,100447.13
2023-04-18T21:05:15.240Z,100442.09
2023-04-18T21:08:17.991Z,100437.09
2023-04-18T21:11:21.042Z,100433.94
2023-04-18T21:14:24.114Z,100443.69
2023-04-18T21:17:27.189Z,100433.16
2023-04-18T21:20:29.863Z,100424.66
2023-04-18T21:23:32.355Z,100425.31
2023-04-18T21:26:35.254Z,100421.53
2023-04-18T21:29:37.949Z,100422.94
2023-04-18T21:32:40.756Z,100430.31
2023-04-18T21:35:43.198Z,100428.28
2023-04-18T21:38:46.371Z,100428.28
2023-04-18T21:41:48.853Z,100425.75
2023-04-18T21:44:51.697Z,100419.13
2023-04-18T21:47:54.457Z,100422.91
2023-04-18T21:50:57.476Z,100427.81
2023-04-18T21:54:00.448Z,100432.50
2023-04-18T21:57:03.210Z,100425.25
2023-04-18T22:00:07.828Z,100415.50
2023-04-18T22:03:12.962Z,100415.19
2023-04-18T22:06:16.208Z,100410.50
2023-04-18T22:09:19.544Z,100405.47
2023-04-18T22:12:22.187Z,100404.81
2023-04-18T22:15:24.806Z,100399.19
2023-04-18T22:18:30.402Z,100394.81
2023-04-18T22:21:32.955Z,100402.34
2023-04-18T22:24:35.929Z,100398.44
2023-04-18T22:27:39.396Z,100396.56
2023-04-18T22:30:41.804Z,100393.88
2023-04-18T22:33:44.804Z,100384.31
2023-04-18T22:36:47.600Z,100389.50
2023-04-18T22:39:50.429Z,100390.00
2023-04-18T22:42:53.076Z,100387.00
2023-04-18T22:45:56.077Z,100383.72
2023-04-18T22:48:58.789Z,100382.13
2023-04-18T22:52:02.096Z,100380.59
2023-04-18T22:55:05.021Z,100368.34
2023-04-18T22:58:08.445Z,100370.41
2023-04-18T23:01:10.917Z,100367.72
2023-04-18T23:04:14.065Z,100361.00
2023-04-18T23:07:17.075Z,100358.31
2023-04-18T23:10:20.171Z,100357.69
2023-04-18T23:13:22.979Z,100351.09
2023-04-18T23:16:25.767Z,100354.09
2023-04-18T23:19:28.604Z,100348.13
2023-04-18T23:22:31.316Z,100348.09
2023-04-18T23:25:34.138Z,100342.63
2023-04-18T23:28:37.792Z,100339.94
2023-04-18T23:31:40.944Z,100339.00
2023-04-18T23:34:45.828Z,100333.81
2023-04-18T23:37:48.252Z,100338.19
2023-04-18T23:40:51.298Z,100330.03
2023-04-18T23:43:54.125Z,100333.63
2023-04-18T23:46:56.770Z,100333.00
2023-04-18T23:49:59.672Z,100336.28
2023-04-18T23:53:03.188Z,100336.56
2023-04-18T23:56:05.978Z,100332.94
2023-04-18T23:59:08.808Z,100337.56
